Time;durP1;ratioP1;P1;durP2;ratioP2;P2;SDS_P1;SDS_P2;PMS_P1;PMS_P2;Temp;Humidity;BMP_temperature;BMP_pressure;BME280_temperature;BME280_humidity;BME280_pressure;Samples;Min_cycle;Max_cycle;Signal;HPM_P1;HPM_P2
2021/08/29 00:00:11;;;;;;;1.83;1.38;;;17.50;63.10;;;;;;5055264;28;20029;-74
2021/08/29 00:02:37;;;;;;;1.83;1.30;;;17.50;62.90;;;;;;5054938;28;20490;-74
2021/08/29 00:05:05;;;;;;;2.90;1.08;;;17.50;62.70;;;;;;5054886;28;20420;-73
2021/08/29 00:07:30;;;;;;;1.40;1.15;;;17.50;62.80;;;;;;5054813;28;20028;-73
2021/08/29 00:09:56;;;;;;;1.98;1.50;;;17.50;62.60;;;;;;5054766;28;20032;-73
2021/08/29 00:12:22;;;;;;;2.38;1.30;;;17.50;62.40;;;;;;5036779;28;20107;-73
2021/08/29 00:14:48;;;;;;;1.88;1.40;;;17.50;62.30;;;;;;5054744;28;20381;-73
2021/08/29 00:17:14;;;;;;;4.03;1.73;;;17.50;62.40;;;;;;5054587;28;20075;-73
2021/08/29 00:19:40;;;;;;;1.85;1.38;;;17.60;62.60;;;;;;5054625;28;20033;-73
2021/08/29 00:22:06;;;;;;;2.72;1.65;;;17.60;62.40;;;;;;5054609;28;20025;-73
2021/08/29 00:24:32;;;;;;;3.03;1.30;;;17.60;62.20;;;;;;5036675;28;20025;-72
2021/08/29 00:26:58;;;;;;;2.75;1.75;;;17.50;62.10;;;;;;5053469;28;20029;-73
2021/08/29 00:29:23;;;;;;;2.88;1.73;;;17.60;62.20;;;;;;5054267;28;20045;-73
2021/08/29 00:31:50;;;;;;;2.33;1.70;;;17.60;62.10;;;;;;5054377;28;20037;-73
2021/08/29 00:34:15;;;;;;;2.75;1.98;;;17.50;62.30;;;;;;5054353;28;20605;-72
2021/08/29 00:36:41;;;;;;;2.13;1.70;;;17.50;62.20;;;;;;5036449;28;20104;-73
2021/08/29 00:39:07;;;;;;;1.98;1.35;;;17.50;62.20;;;;;;5054252;28;20497;-73
2021/08/29 00:41:33;;;;;;;3.72;1.50;;;17.50;62.20;;;;;;5054220;28;20377;-73
2021/08/29 00:44:00;;;;;;;2.08;1.67;;;17.50;62.30;;;;;;5036285;28;20485;-74
2021/08/29 00:46:26;;;;;;;2.15;1.55;;;17.50;62.20;;;;;;5036222;28;20024;-72
2021/08/29 00:48:52;;;;;;;2.55;1.77;;;17.50;62.10;;;;;;5054055;28;20438;-73
2021/08/29 00:51:19;;;;;;;2.88;1.35;;;17.60;62.20;;;;;;5053987;28;20090;-73
2021/08/29 00:53:50;;;;;;;1.65;1.45;;;17.50;62.00;;;;;;5036173;28;20025;-74
2021/08/29 00:56:19;;;;;;;1.60;1.50;;;17.50;61.80;;;;;;5053989;28;20036;-73
2021/08/29 00:58:48;;;;;;;1.67;1.23;;;17.50;61.70;;;;;;5053909;28;20079;-72
2021/08/29 01:01:16;;;;;;;2.92;1.70;;;17.50;61.70;;;;;;5053647;28;20409;-72
2021/08/29 01:03:42;;;;;;;1.70;1.35;;;17.50;61.80;;;;;;5053618;28;20048;-72
2021/08/29 01:06:15;;;;;;;2.30;1.50;;;17.50;61.80;;;;;;5053532;28;20423;-72
2021/08/29 01:08:42;;;;;;;1.58;1.48;;;17.40;61.80;;;;;;5053557;28;20431;-72
2021/08/29 01:11:18;;;;;;;1.55;1.35;;;17.40;61.80;;;;;;5053383;28;20036;-72
2021/08/29 01:13:45;;;;;;;3.25;2.10;;;17.30;61.80;;;;;;5053399;28;20025;-72
2021/08/29 01:16:19;;;;;;;5.32;2.28;;;17.30;61.80;;;;;;5053382;28;20049;-72
2021/08/29 01:18:53;;;;;;;1.73;1.52;;;17.30;61.90;;;;;;5053317;28;20393;-72
2021/08/29 01:21:23;;;;;;;1.67;1.58;;;17.30;61.90;;;;;;5053375;28;20493;-72
2021/08/29 01:24:08;;;;;;;2.40;2.00;;;17.20;61.80;;;;;;5053348;28;20028;-72
2021/08/29 01:26:52;;;;;;;2.78;2.17;;;17.20;62.10;;;;;;5053176;28;20055;-72
2021/08/29 01:29:23;;;;;;;7.13;2.42;;;17.10;62.00;;;;;;5053006;28;20049;-72
2021/08/29 01:31:49;;;;;;;2.15;1.58;;;17.10;62.10;;;;;;5053103;28;20032;-72
2021/08/29 01:34:17;;;;;;;2.10;1.90;;;17.10;62.10;;;;;;5053167;28;20478;-72
2021/08/29 01:36:45;;;;;;;2.38;2.17;;;17.10;62.30;;;;;;5053121;28;20031;-72
2021/08/29 01:39:11;;;;;;;1.95;1.77;;;17.00;62.30;;;;;;5052817;28;20021;-72
2021/08/29 01:41:39;;;;;;;2.47;1.98;;;17.00;62.40;;;;;;5052817;28;20111;-72
2021/08/29 01:44:05;;;;;;;3.20;2.28;;;16.90;62.40;;;;;;5037049;28;20378;-72
2021/08/29 01:46:32;;;;;;;2.97;2.38;;;16.90;62.70;;;;;;5052996;28;20029;-72
2021/08/29 01:48:58;;;;;;;2.90;2.05;;;16.90;62.70;;;;;;5052231;28;20048;-72
2021/08/29 01:51:24;;;;;;;4.15;2.50;;;16.90;62.70;;;;;;5052120;28;20033;-72
2021/08/29 01:53:50;;;;;;;2.22;1.90;;;16.90;62.90;;;;;;5052562;28;20430;-72
2021/08/29 01:56:16;;;;;;;2.65;1.85;;;16.90;62.90;;;;;;5052878;28;20021;-72
2021/08/29 01:58:41;;;;;;;2.58;2.25;;;16.80;62.90;;;;;;5052460;28;20036;-72
2021/08/29 02:01:12;;;;;;;3.03;1.80;;;16.80;62.90;;;;;;5034931;28;20064;-72
2021/08/29 02:03:43;;;;;;;2.85;2.22;;;16.80;63.00;;;;;;5035816;28;20029;-72
2021/08/29 02:06:26;;;;;;;2.63;2.22;;;16.80;63.10;;;;;;5052748;28;20111;-73
2021/08/29 02:09:06;;;;;;;2.15;1.75;;;16.80;63.30;;;;;;5052532;28;20493;-72
2021/08/29 02:11:39;;;;;;;3.83;2.15;;;16.80;63.20;;;;;;5052706;28;20132;-72
2021/08/29 02:14:11;;;;;;;2.70;2.03;;;16.80;63.20;;;;;;5049731;28;20033;-73
2021/08/29 02:16:40;;;;;;;2.42;2.05;;;16.80;63.30;;;;;;5052670;28;20017;-73
2021/08/29 02:19:07;;;;;;;3.10;2.20;;;16.80;63.40;;;;;;5052652;28;20478;-72
2021/08/29 02:21:35;;;;;;;2.20;2.00;;;16.80;63.40;;;;;;5052698;28;20036;-72
2021/08/29 02:24:03;;;;;;;3.38;1.95;;;16.80;63.40;;;;;;5052652;28;20025;-72
2021/08/29 02:26:29;;;;;;;2.88;2.45;;;16.80;63.60;;;;;;5052695;28;20025;-73
2021/08/29 02:28:55;;;;;;;3.40;2.58;;;16.80;63.70;;;;;;5052342;28;20032;-73
2021/08/29 02:31:22;;;;;;;4.63;2.20;;;16.90;63.70;;;;;;5034693;28;20136;-73
2021/08/29 02:33:48;;;;;;;2.95;2.25;;;16.90;63.70;;;;;;5052593;28;20025;-72
2021/08/29 02:36:19;;;;;;;3.63;2.40;;;16.90;63.80;;;;;;5052536;28;20028;-73
2021/08/29 02:38:48;;;;;;;2.90;2.53;;;16.90;63.70;;;;;;5052497;28;20021;-72
2021/08/29 02:41:16;;;;;;;3.35;2.30;;;16.90;63.50;;;;;;5052457;28;20359;-72
2021/08/29 02:43:44;;;;;;;3.33;2.50;;;16.90;63.60;;;;;;5034913;28;20493;-72
2021/08/29 02:46:10;;;;;;;2.85;2.25;;;16.90;63.50;;;;;;5052064;28;20029;-72
2021/08/29 02:48:36;;;;;;;2.80;2.33;;;16.90;63.50;;;;;;5052430;28;20100;-72
2021/08/29 02:51:02;;;;;;;3.63;2.50;;;16.90;63.60;;;;;;5054115;28;20029;-73
2021/08/29 02:53:28;;;;;;;4.68;2.17;;;16.90;63.50;;;;;;5056182;28;20036;-72
2021/08/29 02:55:59;;;;;;;4.13;2.95;;;16.90;63.50;;;;;;5056170;28;20017;-73
2021/08/29 02:58:26;;;;;;;3.65;2.90;;;16.90;63.50;;;;;;5056092;28;20551;-73
2021/08/29 03:00:53;;;;;;;3.92;2.60;;;16.90;63.50;;;;;;5055995;28;20017;-73
2021/08/29 03:03:20;;;;;;;3.92;3.08;;;16.90;63.40;;;;;;5055905;28;20029;-73
2021/08/29 03:05:45;;;;;;;5.85;2.42;;;16.90;63.50;;;;;;5055844;28;20250;-73
2021/08/29 03:08:11;;;;;;;3.65;3.28;;;16.90;63.40;;;;;;5037978;28;20120;-73
2021/08/29 03:10:37;;;;;;;3.63;3.20;;;16.90;63.60;;;;;;5055808;28;20024;-73
2021/08/29 03:13:04;;;;;;;3.63;3.08;;;16.90;63.50;;;;;;5055771;28;20409;-72
2021/08/29 03:15:31;;;;;;;4.65;3.15;;;16.90;63.60;;;;;;5055767;28;20017;-73
2021/08/29 03:17:57;;;;;;;4.22;3.08;;;16.90;63.60;;;;;;5055325;28;20481;-72
2021/08/29 03:20:24;;;;;;;5.20;4.07;;;16.90;63.60;;;;;;5054351;28;20033;-72
2021/08/29 03:22:51;;;;;;;4.35;2.95;;;16.90;63.60;;;;;;5054342;28;20108;-73
2021/08/29 03:25:17;;;;;;;4.45;3.50;;;16.90;63.60;;;;;;5055571;28;20017;-73
2021/08/29 03:27:44;;;;;;;5.13;2.65;;;16.90;63.60;;;;;;5055445;28;20078;-73
2021/08/29 03:30:10;;;;;;;3.83;3.20;;;16.90;63.60;;;;;;5055221;28;20073;-73
2021/08/29 03:32:37;;;;;;;3.42;2.95;;;16.90;63.70;;;;;;5055323;28;20154;-73
2021/08/29 03:35:07;;;;;;;3.83;3.13;;;16.90;63.60;;;;;;5037410;28;20108;-73
2021/08/29 03:37:33;;;;;;;5.18;3.47;;;16.80;63.70;;;;;;5055299;28;20048;-73
2021/08/29 03:40:04;;;;;;;4.45;3.60;;;16.90;63.80;;;;;;5055249;28;20053;-72
2021/08/29 03:42:32;;;;;;;5.07;4.50;;;16.90;63.80;;;;;;5055283;28;20104;-73
2021/08/29 03:44:59;;;;;;;4.55;4.05;;;16.90;63.90;;;;;;5054850;28;20029;-73
2021/08/29 03:47:25;;;;;;;4.78;3.45;;;16.90;63.90;;;;;;5055190;28;20021;-73
2021/08/29 03:49:51;;;;;;;4.40;3.53;;;16.90;63.90;;;;;;5055098;28;20029;-73
2021/08/29 03:52:18;;;;;;;3.40;3.10;;;16.90;64.00;;;;;;5054982;28;20029;-72
2021/08/29 03:54:46;;;;;;;5.43;3.55;;;16.90;64.10;;;;;;5053769;28;20025;-73
2021/08/29 03:57:12;;;;;;;4.47;3.83;;;16.90;64.10;;;;;;5054662;28;20391;-73
2021/08/29 03:59:38;;;;;;;4.88;4.07;;;17.00;64.10;;;;;;5054927;28;20027;-72
2021/08/29 04:02:05;;;;;;;6.75;5.80;;;17.00;64.00;;;;;;5054650;28;20025;-72
2021/08/29 04:04:35;;;;;;;7.18;5.25;;;17.00;64.00;;;;;;5036955;28;20029;-73
2021/08/29 04:07:05;;;;;;;6.25;5.28;;;17.00;64.00;;;;;;5054876;28;20074;-73
2021/08/29 04:09:33;;;;;;;8.50;5.43;;;17.00;64.10;;;;;;5054733;28;20497;-72
2021/08/29 04:12:02;;;;;;;6.38;5.57;;;17.00;64.10;;;;;;5054455;28;20480;-73
2021/08/29 04:14:29;;;;;;;7.68;6.00;;;17.00;64.10;;;;;;5054806;28;20021;-73
2021/08/29 04:16:57;;;;;;;9.45;6.07;;;17.00;64.00;;;;;;5054702;28;20053;-73
2021/08/29 04:19:25;;;;;;;8.38;5.90;;;17.00;64.00;;;;;;5054619;28;20410;-73
2021/08/29 04:21:55;;;;;;;9.13;6.68;;;17.10;64.10;;;;;;5054611;28;20024;-73
2021/08/29 04:24:21;;;;;;;8.20;6.60;;;17.10;64.80;;;;;;5054476;28;20028;-73
2021/08/29 04:26:48;;;;;;;8.50;6.20;;;17.10;64.00;;;;;;5054421;28;20031;-73
2021/08/29 04:29:14;;;;;;;8.90;6.25;;;17.10;64.00;;;;;;5054186;28;20102;-73
2021/08/29 04:31:47;;;;;;;7.55;5.95;;;17.10;64.00;;;;;;5054383;28;20367;-73
2021/08/29 04:34:14;;;;;;;5.75;5.00;;;17.10;64.00;;;;;;5054361;28;20023;-73
2021/08/29 04:36:40;;;;;;;6.95;4.97;;;17.10;63.90;;;;;;5054303;28;20029;-73
2021/08/29 04:39:08;;;;;;;6.03;5.22;;;17.10;63.90;;;;;;5054014;28;20029;-73
2021/08/29 04:41:35;;;;;;;9.20;5.88;;;17.10;63.90;;;;;;5054227;28;20052;-73
2021/08/29 04:44:01;;;;;;;5.45;4.95;;;17.10;63.90;;;;;;5054129;28;20033;-73
2021/08/29 04:46:28;;;;;;;6.40;5.70;;;17.10;64.00;;;;;;5053954;28;20557;-73
2021/08/29 04:48:54;;;;;;;7.82;6.30;;;17.10;64.00;;;;;;5054054;28;20055;-73
2021/08/29 04:51:19;;;;;;;8.32;5.78;;;17.10;64.00;;;;;;5053990;28;20029;-72
2021/08/29 04:53:45;;;;;;;8.30;5.85;;;17.10;64.00;;;;;;5054016;28;20033;-73
2021/08/29 04:56:11;;;;;;;10.88;6.57;;;17.10;64.00;;;;;;5053936;28;20021;-73
2021/08/29 04:58:37;;;;;;;8.35;5.88;;;17.10;64.10;;;;;;5053826;28;20025;-74
2021/08/29 05:01:02;;;;;;;12.68;7.70;;;17.10;64.10;;;;;;5053823;28;20130;-72
2021/08/29 05:03:28;;;;;;;10.10;7.13;;;17.10;64.20;;;;;;5053850;28;20082;-72
2021/08/29 05:05:56;;;;;;;12.63;7.55;;;17.10;64.10;;;;;;5053768;28;20092;-72
2021/08/29 05:08:22;;;;;;;15.10;7.70;;;17.10;64.10;;;;;;5053703;28;20032;-73
2021/08/29 05:10:47;;;;;;;8.80;6.40;;;17.10;64.10;;;;;;5052313;28;20279;-73
2021/08/29 05:13:13;;;;;;;8.57;6.22;;;17.20;64.30;;;;;;5053087;28;20398;-72
2021/08/29 05:15:39;;;;;;;9.60;6.85;;;17.20;64.30;;;;;;5052305;28;20036;-73
2021/08/29 05:18:05;;;;;;;7.25;5.22;;;17.20;64.30;;;;;;5052200;28;20048;-72
2021/08/29 05:20:30;;;;;;;7.30;5.50;;;17.20;64.30;;;;;;5053467;28;20017;-73
2021/08/29 05:22:56;;;;;;;6.32;5.38;;;17.30;64.30;;;;;;5053480;28;20390;-73
2021/08/29 05:25:22;;;;;;;5.95;5.15;;;17.30;64.30;;;;;;5053043;28;20025;-72
2021/08/29 05:27:48;;;;;;;5.85;4.80;;;17.30;64.20;;;;;;5053289;28;20032;-72
2021/08/29 05:30:13;;;;;;;5.65;4.88;;;17.40;64.20;;;;;;5052032;28;20047;-73
2021/08/29 05:32:39;;;;;;;4.57;4.05;;;17.40;64.20;;;;;;5053175;28;20432;-73
2021/08/29 05:35:05;;;;;;;5.43;4.63;;;17.40;64.10;;;;;;5053307;28;20398;-72
2021/08/29 05:37:31;;;;;;;7.28;3.90;;;17.50;64.10;;;;;;5052902;28;20075;-72
2021/08/29 05:39:57;;;;;;;3.97;3.58;;;17.50;63.80;;;;;;5053184;28;20021;-73
2021/08/29 05:42:23;;;;;;;5.72;4.10;;;17.50;63.60;;;;;;5035292;28;20025;-73
2021/08/29 05:44:48;;;;;;;4.38;3.60;;;17.60;63.60;;;;;;5052871;28;20029;-72
2021/08/29 05:47:14;;;;;;;4.85;3.88;;;17.60;63.50;;;;;;5053086;28;20029;-73
2021/08/29 05:49:40;;;;;;;4.32;3.63;;;17.70;63.50;;;;;;5053076;28;20510;-73
2021/08/29 05:52:06;;;;;;;4.70;3.65;;;17.70;63.20;;;;;;5052954;28;20104;-72
2021/08/29 05:54:32;;;;;;;4.22;3.20;;;17.70;63.00;;;;;;5053008;28;20017;-73
2021/08/29 05:56:58;;;;;;;3.47;3.17;;;17.70;63.00;;;;;;5052913;28;20039;-73
2021/08/29 05:59:24;;;;;;;6.05;3.17;;;17.70;63.00;;;;;;5052913;28;20150;-73
2021/08/29 06:01:50;;;;;;;5.85;2.85;;;17.80;62.90;;;;;;5052917;28;20060;-72
2021/08/29 06:04:15;;;;;;;3.75;3.28;;;17.80;62.60;;;;;;5052623;28;20036;-73
2021/08/29 06:06:41;;;;;;;6.15;2.80;;;17.80;62.50;;;;;;5052510;28;20036;-73
2021/08/29 06:09:07;;;;;;;3.60;2.95;;;17.90;62.40;;;;;;5052878;28;20029;-73
2021/08/29 06:11:33;;;;;;;3.80;3.00;;;17.90;62.20;;;;;;5052730;28;20034;-73
2021/08/29 06:13:59;;;;;;;3.80;2.70;;;18.00;62.30;;;;;;5052857;28;20099;-72
2021/08/29 06:16:26;;;;;;;3.38;2.30;;;18.00;62.10;;;;;;5052812;28;20029;-72
2021/08/29 06:18:52;;;;;;;3.53;2.33;;;18.10;61.50;;;;;;5052732;28;20470;-73
2021/08/29 06:21:20;;;;;;;3.00;2.25;;;18.10;61.30;;;;;;5052857;28;20036;-73
2021/08/29 06:23:46;;;;;;;3.45;2.75;;;18.10;61.10;;;;;;5053058;28;20021;-73
2021/08/29 06:26:11;;;;;;;3.25;2.20;;;18.20;60.20;;;;;;5055027;28;20504;-73
2021/08/29 06:28:37;;;;;;;3.22;2.45;;;18.20;60.10;;;;;;5056935;28;20021;-73
2021/08/29 06:31:03;;;;;;;2.42;2.08;;;18.20;60.00;;;;;;5056779;28;20053;-73
2021/08/29 06:33:29;;;;;;;2.40;2.05;;;18.30;59.90;;;;;;5057660;28;20017;-73
2021/08/29 06:35:55;;;;;;;2.33;1.80;;;18.30;59.80;;;;;;5056596;28;20488;-73
2021/08/29 06:38:22;;;;;;;2.30;2.00;;;18.40;59.70;;;;;;5056441;28;20355;-73
2021/08/29 06:40:48;;;;;;;3.20;2.00;;;18.40;59.50;;;;;;5056462;28;20025;-73
2021/08/29 06:43:14;;;;;;;2.33;2.00;;;18.50;59.50;;;;;;5056384;28;20083;-73
2021/08/29 06:45:41;;;;;;;5.22;2.00;;;18.50;59.20;;;;;;5038511;28;20103;-73
2021/08/29 06:48:07;;;;;;;4.40;2.00;;;18.60;58.90;;;;;;5056346;28;20013;-73
2021/08/29 06:50:33;;;;;;;2.50;1.88;;;18.60;59.00;;;;;;5056247;28;20021;-73
2021/08/29 06:52:59;;;;;;;3.10;1.60;;;18.70;58.50;;;;;;5055908;28;20033;-73
2021/08/29 06:55:25;;;;;;;2.42;1.63;;;18.70;58.70;;;;;;5056275;28;20036;-73
2021/08/29 06:57:51;;;;;;;1.77;1.40;;;18.80;58.60;;;;;;5056166;28;20029;-73
2021/08/29 07:00:17;;;;;;;3.55;2.17;;;18.80;58.60;;;;;;5055808;28;20032;-73
2021/08/29 07:02:43;;;;;;;2.53;1.50;;;18.90;58.40;;;;;;5042667;28;20469;-73
2021/08/29 07:05:09;;;;;;;2.97;1.60;;;18.90;58.70;;;;;;5055969;28;20025;-73
2021/08/29 07:07:35;;;;;;;3.50;1.50;;;18.90;57.90;;;;;;5055963;28;20021;-73
2021/08/29 07:10:01;;;;;;;1.70;1.58;;;18.90;57.40;;;;;;5038087;28;20040;-73
2021/08/29 07:12:27;;;;;;;1.63;1.40;;;18.90;57.60;;;;;;5055795;28;20078;-73
2021/08/29 07:14:53;;;;;;;1.55;1.30;;;18.90;57.30;;;;;;5055821;28;20020;-74
2021/08/29 07:17:19;;;;;;;1.85;1.27;;;18.90;57.40;;;;;;5055726;28;20021;-73
2021/08/29 07:19:45;;;;;;;1.65;1.38;;;18.90;57.40;;;;;;5055720;28;20024;-73
2021/08/29 07:22:11;;;;;;;1.50;1.40;;;19.00;57.40;;;;;;5037850;28;20374;-74
2021/08/29 07:24:37;;;;;;;1.73;1.38;;;19.00;57.40;;;;;;5055591;28;20025;-73
2021/08/29 07:27:04;;;;;;;2.63;1.48;;;19.00;57.60;;;;;;5037651;28;20053;-73
2021/08/29 07:29:30;;;;;;;2.92;1.52;;;19.00;57.50;;;;;;5055360;28;20045;-73
2021/08/29 07:31:57;;;;;;;2.92;1.67;;;19.10;57.50;;;;;;5055392;28;20024;-74
2021/08/29 07:34:23;;;;;;;4.95;1.70;;;19.10;57.20;;;;;;5037666;28;20021;-73
2021/08/29 07:36:49;;;;;;;4.32;1.45;;;19.20;57.10;;;;;;5054865;28;20382;-73
2021/08/29 07:39:15;;;;;;;1.48;1.20;;;19.20;57.40;;;;;;5055102;28;20166;-72
2021/08/29 07:41:40;;;;;;;1.30;1.20;;;19.30;57.00;;;;;;5054946;28;20090;-73
2021/08/29 07:44:06;;;;;;;2.78;1.55;;;19.40;56.50;;;;;;5055065;28;20352;-74
2021/08/29 07:46:33;;;;;;;1.25;1.15;;;19.40;56.70;;;;;;5037416;28;20036;-74
2021/08/29 07:48:59;;;;;;;1.98;1.40;;;19.50;56.70;;;;;;5055100;28;20032;-74
2021/08/29 07:51:25;;;;;;;1.50;1.05;;;19.60;56.80;;;;;;5055066;28;20029;-73
2021/08/29 07:53:51;;;;;;;1.73;1.20;;;19.70;56.30;;;;;;5037244;28;20108;-74
2021/08/29 07:56:16;;;;;;;2.65;1.35;;;19.80;56.00;;;;;;5054819;28;20049;-73
2021/08/29 07:58:42;;;;;;;2.40;1.38;;;19.80;55.70;;;;;;5054783;28;20021;-73
2021/08/29 08:01:08;;;;;;;1.75;1.20;;;19.90;55.30;;;;;;5054798;28;20047;-73
2021/08/29 08:03:35;;;;;;;1.88;1.20;;;19.90;55.60;;;;;;5054901;28;20055;-73
2021/08/29 08:06:05;;;;;;;4.50;1.52;;;20.00;55.30;;;;;;5036805;28;20060;-74
2021/08/29 08:08:31;;;;;;;1.60;1.50;;;20.00;54.30;;;;;;5054884;28;20557;-74
2021/08/29 08:10:56;;;;;;;3.03;1.30;;;20.10;54.70;;;;;;5039380;28;20229;-74
2021/08/29 08:13:22;;;;;;;1.63;1.40;;;20.10;54.90;;;;;;5053440;28;20428;-74
2021/08/29 08:15:48;;;;;;;1.73;1.50;;;20.10;54.90;;;;;;5054491;28;20188;-74
2021/08/29 08:18:14;;;;;;;1.55;1.42;;;20.20;54.90;;;;;;5053257;28;20021;-74
2021/08/29 08:20:40;;;;;;;2.38;1.60;;;20.20;54.70;;;;;;5054599;28;20493;-73
2021/08/29 08:23:06;;;;;;;3.28;1.80;;;20.30;54.80;;;;;;5054162;28;20029;-74
2021/08/29 08:25:32;;;;;;;2.95;1.83;;;20.30;54.20;;;;;;5054475;28;20029;-74
2021/08/29 08:27:57;;;;;;;2.00;1.55;;;20.40;54.40;;;;;;5054506;28;20363;-74
2021/08/29 08:30:23;;;;;;;1.65;1.55;;;20.40;54.40;;;;;;5049738;28;20044;-74
2021/08/29 08:32:49;;;;;;;1.73;1.52;;;20.50;53.90;;;;;;5044316;28;20033;-74
2021/08/29 08:35:15;;;;;;;3.70;1.83;;;20.60;54.50;;;;;;5038306;28;20521;-74
2021/08/29 08:37:41;;;;;;;4.25;1.92;;;20.70;54.20;;;;;;5048756;28;20021;-74
2021/08/29 08:40:08;;;;;;;2.78;1.52;;;20.70;53.60;;;;;;5037459;28;20379;-74
2021/08/29 08:42:33;;;;;;;2.00;1.50;;;20.90;54.10;;;;;;5053827;28;20025;-74
2021/08/29 08:45:00;;;;;;;1.60;1.50;;;21.00;53.80;;;;;;5053880;28;20029;-74
2021/08/29 08:47:26;;;;;;;1.65;1.55;;;21.10;53.10;;;;;;5053258;28;20086;-74
2021/08/29 08:49:57;;;;;;;4.45;1.40;;;21.30;52.70;;;;;;5037902;28;20522;-74
2021/08/29 08:52:26;;;;;;;1.45;1.35;;;21.40;52.50;;;;;;5052949;28;20033;-74
2021/08/29 08:54:53;;;;;;;1.95;1.63;;;21.60;52.20;;;;;;5035841;28;20017;-74
2021/08/29 08:57:20;;;;;;;1.55;1.30;;;21.70;51.80;;;;;;5035223;28;20070;-74
2021/08/29 08:59:47;;;;;;;1.40;1.30;;;21.90;51.40;;;;;;5056637;28;20100;-74
2021/08/29 09:02:13;;;;;;;3.30;1.58;;;22.00;51.10;;;;;;5055241;28;20082;-74
2021/08/29 09:04:43;;;;;;;1.42;1.33;;;22.00;50.60;;;;;;5053589;28;20102;-73
2021/08/29 09:07:09;;;;;;;2.58;1.88;;;22.10;50.40;;;;;;5026432;28;20510;-74
2021/08/29 09:09:35;;;;;;;1.85;1.45;;;22.00;50.30;;;;;;5028755;28;20478;-74
2021/08/29 09:12:02;;;;;;;1.73;1.30;;;22.00;49.80;;;;;;5036874;28;20071;-74
2021/08/29 09:14:48;;;;;;;1.42;1.33;;;22.00;50.40;;;;;;5053672;28;20023;-74
2021/08/29 09:17:37;;;;;;;2.00;1.45;;;22.00;50.30;;;;;;5053260;28;20103;-73
2021/08/29 09:20:24;;;;;;;1.52;1.40;;;22.10;50.60;;;;;;5045827;28;20474;-74
2021/08/29 09:22:59;;;;;;;1.15;1.00;;;22.10;50.20;;;;;;5053258;28;20055;-74
2021/08/29 09:25:28;;;;;;;1.70;1.48;;;22.20;50.20;;;;;;5053282;28;20029;-73
2021/08/29 09:27:56;;;;;;;1.58;1.45;;;22.20;49.50;;;;;;5053213;28;20029;-73
2021/08/29 09:30:24;;;;;;;1.40;1.30;;;22.20;49.60;;;;;;5052926;28;20049;-74
2021/08/29 09:32:53;;;;;;;2.72;1.90;;;22.20;49.50;;;;;;5053015;28;20454;-73
2021/08/29 09:35:22;;;;;;;2.10;1.58;;;22.10;49.00;;;;;;5053077;28;20031;-73
2021/08/29 09:37:47;;;;;;;2.25;1.40;;;22.00;49.30;;;;;;5053132;28;20100;-73
2021/08/29 09:40:34;;;;;;;1.50;1.40;;;22.00;50.00;;;;;;5035053;28;20107;-73
2021/08/29 09:43:03;;;;;;;1.58;1.42;;;21.90;50.10;;;;;;5052989;28;20381;-73
2021/08/29 09:45:32;;;;;;;1.80;1.30;;;21.80;50.10;;;;;;5035005;28;20056;-73
2021/08/29 09:48:03;;;;;;;1.30;1.20;;;21.80;50.70;;;;;;5052768;28;20031;-73
2021/08/29 09:50:32;;;;;;;1.55;1.45;;;21.90;50.60;;;;;;5036744;28;20029;-73
2021/08/29 09:53:19;;;;;;;2.13;1.90;;;21.90;50.20;;;;;;5034897;28;20498;-73
2021/08/29 09:55:47;;;;;;;3.22;2.35;;;22.00;50.40;;;;;;5052868;28;20025;-73
2021/08/29 09:58:31;;;;;;;3.72;2.63;;;22.10;49.60;;;;;;5052910;28;20474;-73
2021/08/29 10:01:12;;;;;;;2.90;2.57;;;22.10;49.20;;;;;;5034886;28;20032;-73
2021/08/29 10:03:43;;;;;;;2.70;2.35;;;22.10;49.40;;;;;;5052865;28;20036;-73
2021/08/29 10:06:30;;;;;;;3.08;2.63;;;22.10;49.40;;;;;;5052836;28;20402;-72
2021/08/29 10:09:01;;;;;;;3.70;2.97;;;22.10;49.40;;;;;;5052925;28;20017;-73
2021/08/29 10:11:29;;;;;;;2.90;2.50;;;22.10;49.80;;;;;;5052793;28;20021;-73
2021/08/29 10:13:56;;;;;;;4.63;3.40;;;22.20;50.10;;;;;;5052720;28;20490;-73
2021/08/29 10:16:23;;;;;;;3.50;2.95;;;22.30;49.90;;;;;;5034751;28;20171;-73
2021/08/29 10:18:55;;;;;;;4.70;3.75;;;22.30;49.40;;;;;;5052659;28;20067;-73
2021/08/29 10:21:24;;;;;;;5.97;3.38;;;22.40;49.50;;;;;;5052767;28;20033;-73
2021/08/29 10:23:52;;;;;;;5.20;3.50;;;22.60;49.20;;;;;;5053087;28;20025;-72
2021/08/29 10:26:21;;;;;;;3.95;3.55;;;22.70;48.80;;;;;;5035317;28;20112;-73
2021/08/29 10:29:17;;;;;;;3.40;3.10;;;22.80;48.20;;;;;;5052838;28;20025;-73
2021/08/29 10:32:02;;;;;;;4.18;3.08;;;22.90;48.20;;;;;;5035683;28;20482;-73
2021/08/29 10:34:30;;;;;;;2.80;2.60;;;23.00;47.40;;;;;;5043177;28;20032;-72
2021/08/29 10:36:57;;;;;;;3.60;2.80;;;23.20;47.70;;;;;;5043083;28;20473;-73
2021/08/29 10:39:24;;;;;;;3.13;2.83;;;23.30;47.40;;;;;;5045194;28;20040;-73
2021/08/29 10:41:52;;;;;;;6.60;3.17;;;23.40;46.70;;;;;;5044902;28;20033;-73
2021/08/29 10:44:18;;;;;;;7.28;3.10;;;23.50;46.40;;;;;;5039290;28;20374;-74
2021/08/29 10:46:46;;;;;;;4.70;3.35;;;23.60;45.50;;;;;;5038007;28;20021;-73
2021/08/29 10:49:14;;;;;;;4.22;3.22;;;23.50;45.10;;;;;;5038645;28;20031;-72
2021/08/29 10:51:41;;;;;;;3.33;3.03;;;23.50;45.50;;;;;;5040350;28;20056;-73
2021/08/29 10:54:12;;;;;;;2.30;2.03;;;23.50;45.80;;;;;;5020350;28;20116;-74
2021/08/29 10:56:40;;;;;;;3.15;2.85;;;23.60;46.20;;;;;;5038181;28;20422;-74
2021/08/29 10:59:09;;;;;;;4.55;2.97;;;23.80;46.10;;;;;;5038194;28;20059;-74
2021/08/29 11:01:39;;;;;;;4.07;2.72;;;23.90;45.20;;;;;;5035841;28;20029;-74
2021/08/29 11:04:26;;;;;;;3.45;2.42;;;24.10;45.20;;;;;;5032381;28;20022;-74
2021/08/29 11:07:02;;;;;;;3.63;2.75;;;24.30;45.20;;;;;;5039308;28;20529;-74
2021/08/29 11:09:34;;;;;;;5.75;3.00;;;24.40;44.00;;;;;;5051973;28;20410;-74
2021/08/29 11:12:23;;;;;;;2.75;2.55;;;24.50;43.10;;;;;;5034876;28;20246;-74
2021/08/29 11:14:54;;;;;;;5.78;2.83;;;24.50;43.30;;;;;;5046364;28;20032;-74
2021/08/29 11:17:23;;;;;;;3.10;2.60;;;24.60;42.60;;;;;;5055363;28;20029;-74
2021/08/29 11:20:09;;;;;;;2.60;2.40;;;24.70;43.10;;;;;;5043339;28;20018;-74
2021/08/29 11:22:44;;;;;;;3.00;2.50;;;24.80;42.40;;;;;;5045969;28;20114;-74
2021/08/29 11:25:10;;;;;;;3.40;2.90;;;24.80;41.70;;;;;;5046275;28;20025;-74
2021/08/29 11:27:44;;;;;;;3.13;2.67;;;24.70;41.70;;;;;;5029490;28;20031;-74
2021/08/29 11:30:18;;;;;;;2.63;2.42;;;24.70;41.90;;;;;;5045988;28;20036;-74
2021/08/29 11:32:56;;;;;;;5.75;3.00;;;24.70;42.30;;;;;;5047354;28;20119;-74
2021/08/29 11:35:34;;;;;;;3.55;2.72;;;24.70;42.50;;;;;;5040203;28;20029;-74
2021/08/29 11:38:17;;;;;;;2.13;2.00;;;24.70;42.40;;;;;;5055037;28;20025;-74
2021/08/29 11:40:45;;;;;;;3.42;2.70;;;24.80;42.90;;;;;;5055416;28;20060;-74
2021/08/29 11:43:29;;;;;;;2.65;2.45;;;24.70;41.70;;;;;;5054749;28;20025;-74
2021/08/29 11:46:09;;;;;;;7.22;2.85;;;24.60;41.90;;;;;;5053947;28;20045;-74
2021/08/29 11:48:36;;;;;;;3.22;2.65;;;24.60;42.30;;;;;;5051325;28;20025;-74
2021/08/29 11:51:04;;;;;;;2.85;2.40;;;24.60;42.50;;;;;;5054346;28;20021;-74
2021/08/29 11:53:45;;;;;;;2.38;2.17;;;24.60;42.80;;;;;;5054927;28;20025;-74
2021/08/29 11:56:11;;;;;;;2.70;2.45;;;24.70;43.10;;;;;;5054986;28;20017;-74
2021/08/29 11:58:37;;;;;;;2.20;2.00;;;24.80;42.50;;;;;;5054899;28;20493;-73
2021/08/29 12:01:05;;;;;;;5.15;2.10;;;24.90;42.20;;;;;;5053625;28;20021;-73
2021/08/29 12:03:35;;;;;;;3.33;2.33;;;25.10;42.30;;;;;;5054615;28;20051;-73
2021/08/29 12:06:07;;;;;;;3.08;2.28;;;25.30;42.10;;;;;;5054958;28;20529;-74
2021/08/29 12:09:12;;;;;;;3.28;2.80;;;25.50;41.50;;;;;;5054778;28;20100;-73
2021/08/29 12:11:40;;;;;;;2.35;2.10;;;25.60;40.70;;;;;;5024231;28;20103;-74
2021/08/29 12:14:12;;;;;;;7.55;2.70;;;25.60;39.80;;;;;;5054662;28;20432;-73
2021/08/29 12:16:43;;;;;;;2.55;1.80;;;25.60;40.00;;;;;;5040396;28;20021;-74
2021/08/29 12:19:12;;;;;;;2.63;2.25;;;25.60;40.30;;;;;;5054329;28;20492;-73
2021/08/29 12:21:40;;;;;;;4.18;2.13;;;25.50;39.80;;;;;;5052985;28;20052;-73
2021/08/29 12:24:07;;;;;;;3.65;2.50;;;25.50;40.30;;;;;;5054538;28;20048;-73
2021/08/29 12:26:36;;;;;;;3.05;2.10;;;25.50;39.90;;;;;;5054506;28;20087;-74
2021/08/29 12:29:03;;;;;;;2.25;1.88;;;25.40;40.30;;;;;;5054185;28;20021;-74
2021/08/29 12:31:40;;;;;;;2.10;1.90;;;25.40;40.70;;;;;;5054235;28;20431;-73
2021/08/29 12:34:07;;;;;;;1.60;1.50;;;25.40;41.60;;;;;;5054109;28;20021;-73
2021/08/29 12:36:33;;;;;;;2.88;2.10;;;25.50;41.10;;;;;;5052976;28;20025;-73
2021/08/29 12:39:00;;;;;;;1.83;1.70;;;25.50;40.10;;;;;;5054000;28;20033;-73
2021/08/29 12:41:27;;;;;;;2.20;1.60;;;25.60;40.30;;;;;;5036245;28;20067;-74
2021/08/29 12:44:03;;;;;;;2.10;1.90;;;25.60;40.70;;;;;;5054196;28;20394;-74
2021/08/29 12:46:30;;;;;;;2.03;1.83;;;25.60;40.40;;;;;;5054187;28;20029;-74
2021/08/29 12:48:56;;;;;;;1.95;1.55;;;25.70;39.90;;;;;;5054015;28;20386;-74
2021/08/29 12:51:24;;;;;;;1.42;1.33;;;25.60;40.30;;;;;;5036015;28;20025;-74